Time;durP1;ratioP1;P1;durP2;ratioP2;P2;SDS_P1;SDS_P2;PMS_P1;PMS_P2;Temp;Humidity;BMP_temperature;BMP_pressure;BME280_temperature;BME280_humidity;BME280_pressure;Samples;Min_cycle;Max_cycle;Signal;HPM_P1;HPM_P2
2023/10/09 00:02:14;;;;;;;;;15.25;14.50;;;;;20.19;66.09;101019.44;5081936;27;45389;-76
2023/10/09 00:04:45;;;;;;;;;16.75;14.50;;;;;20.18;66.08;101023.84;5081961;27;45525;-77
2023/10/09 00:07:11;;;;;;;;;16.50;15.75;;;;;20.11;66.18;101016.78;5066286;27;45775;-76
2023/10/09 00:09:46;;;;;;;;;16.75;16.50;;;;;20.15;66.08;101025.63;5086310;27;45544;-75
2023/10/09 00:12:16;;;;;;;;;18.75;17.50;;;;;20.11;66.12;101031.81;5082713;27;46170;-75
2023/10/09 00:14:47;;;;;;;;;19.50;16.50;;;;;20.03;65.99;101015.91;5080085;27;46544;-74
2023/10/09 00:19:43;;;;;;;;;18.50;16.50;;;;;20.00;66.40;101024.78;5082682;27;46240;-77
2023/10/09 00:22:20;;;;;;;;;16.50;16.50;;;;;20.09;66.17;101034.47;5063704;27;46668;-73
2023/10/09 00:24:49;;;;;;;;;17.75;16.00;;;;;20.09;65.80;101025.63;5062025;27;45586;-77
2023/10/09 00:27:16;;;;;;;;;18.25;17.50;;;;;19.92;65.97;101010.63;5072913;27;45472;-76
2023/10/09 00:29:45;;;;;;;;;20.00;19.00;;;;;19.96;66.16;101023.00;5086016;27;45481;-76
2023/10/09 00:32:32;;;;;;;;;17.00;16.75;;;;;19.86;67.31;101019.47;5071908;27;45632;-76
2023/10/09 00:35:13;;;;;;;;;20.75;19.00;;;;;19.89;66.93;101015.94;5085737;27;45430;-76
2023/10/09 00:37:39;;;;;;;;;19.75;18.25;;;;;19.88;67.18;101016.84;5078142;27;45487;-75
2023/10/09 00:40:19;;;;;;;;;17.50;17.25;;;;;19.80;67.39;101008.88;5084105;27;45500;-74
2023/10/09 00:42:47;;;;;;;;;20.25;17.50;;;;;19.88;67.09;101021.25;5064207;27;46356;-74
2023/10/09 00:45:24;;;;;;;;;22.25;18.00;;;;;19.83;66.51;101010.63;5085837;27;45549;-74
2023/10/09 00:47:51;;;;;;;;;19.50;19.50;;;;;19.87;66.49;101025.66;5078822;27;45597;-76
2023/10/09 00:52:53;;;;;;;;;21.25;19.50;;;;;19.64;66.74;100999.16;5084550;27;46013;-76
2023/10/09 00:56:18;;;;;;;;;18.50;15.75;;;;;19.78;66.71;101008.00;5061989;27;45436;-75
2023/10/09 00:58:23;;;;;;;;;19.75;17.75;;;;;19.77;67.39;101014.16;5081943;27;45521;-76
2023/10/09 01:00:52;;;;;;;;;18.25;16.75;;;;;19.75;66.85;101001.81;5065810;27;45510;-75
2023/10/09 01:03:20;;;;;;;;;18.50;17.00;;;;;19.72;67.20;100996.53;5086132;27;46479;-74
2023/10/09 01:11:09;;;;;;;;;17.25;16.25;;;;;19.62;68.05;101004.44;5089516;27;45917;-74
2023/10/09 01:14:22;;;;;;;;;21.50;19.50;;;;;19.54;68.14;101015.94;5072304;27;47933;-77
2023/10/09 01:16:23;;;;;;;;;18.75;17.25;;;;;19.56;68.42;101012.38;5083060;27;45415;-77
2023/10/09 01:18:59;;;;;;;;;17.75;17.00;;;;;19.56;68.73;101008.88;5088600;27;45585;-77
2023/10/09 01:21:26;;;;;;;;;20.00;19.00;;;;;19.49;68.96;100989.41;5068905;27;45263;-74
2023/10/09 01:24:03;;;;;;;;;15.50;15.50;;;;;19.55;68.53;100994.69;5088134;27;45486;-74
2023/10/09 01:26:44;;;;;;;;;20.75;18.75;;;;;19.61;68.02;101005.31;5069631;27;45459;-77
2023/10/09 01:29:14;;;;;;;;;15.50;15.00;;;;;19.61;67.67;100994.69;5078909;27;45492;-76
2023/10/09 01:31:52;;;;;;;;;21.00;18.75;;;;;19.59;67.35;100991.16;5076581;27;45392;-76
2023/10/09 01:37:05;;;;;;;;;18.00;16.75;;;;;19.53;66.89;100980.56;5112609;27;44717;-77
2023/10/09 01:39:31;;;;;;;;;18.00;15.75;;;;;19.60;67.03;100992.94;5111571;27;44902;-76
2023/10/09 01:42:05;;;;;;;;;22.00;19.00;;;;;19.58;67.34;100991.19;5114557;27;45448;-76
2023/10/09 01:44:35;;;;;;;;;17.50;16.75;;;;;19.51;67.34;100985.00;5097582;27;45442;-77
2023/10/09 01:47:13;;;;;;;;;18.50;17.50;;;;;19.56;67.26;100982.38;5084334;27;45376;-77
2023/10/09 01:49:43;;;;;;;;;15.25;15.25;;;;;19.51;67.46;100974.38;5075206;27;45434;-74
2023/10/09 01:52:15;;;;;;;;;15.50;14.75;;;;;19.47;67.41;100959.38;5088714;27;45275;-74
2023/10/09 01:54:47;;;;;;;;;17.00;14.50;;;;;19.52;67.41;100977.91;5081110;27;45857;-76
2023/10/09 01:57:13;;;;;;;;;19.00;17.75;;;;;19.44;67.69;100965.56;5075674;27;45413;-77
2023/10/09 01:59:43;;;;;;;;;18.00;18.00;;;;;19.44;68.16;100965.56;5077622;27;45971;-77
2023/10/09 02:04:42;;;;;;;;;17.00;17.00;;;;;19.45;67.97;100974.41;5083714;27;45939;-77
2023/10/09 02:07:08;;;;;;;;;18.25;16.50;;;;;19.38;67.98;100970.00;5068732;27;45720;-76
2023/10/09 02:09:35;;;;;;;;;17.25;16.25;;;;;19.38;68.30;100959.41;5086586;27;45521;-76
2023/10/09 02:12:01;;;;;;;;;17.50;17.00;;;;;19.45;68.52;100972.63;5086205;27;45469;-76
2023/10/09 02:14:28;;;;;;;;;19.00;18.00;;;;;19.37;68.51;100971.75;5081189;27;45492;-77
2023/10/09 02:17:03;;;;;;;;;16.00;15.75;;;;;19.42;68.73;100982.34;5086015;27;45379;-77
2023/10/09 02:19:34;;;;;;;;;18.75;17.25;;;;;19.46;68.58;100973.53;5085959;27;45296;-77
2023/10/09 02:22:19;;;;;;;;;15.75;15.25;;;;;19.40;68.63;100965.56;5088119;27;45442;-76
2023/10/09 02:27:19;;;;;;;;;17.25;16.25;;;;;19.42;68.55;100961.16;5085603;27;45344;-76
2023/10/09 02:29:47;;;;;;;;;17.75;17.00;;;;;19.41;68.34;100960.25;5070768;27;45970;-74
2023/10/09 02:32:25;;;;;;;;;17.25;17.25;;;;;19.52;68.69;100970.88;5086208;27;45314;-74
2023/10/09 02:34:53;;;;;;;;;16.00;15.00;;;;;19.44;68.63;100959.41;5083925;27;46217;-74
2023/10/09 02:37:23;;;;;;;;;19.00;18.00;;;;;19.53;69.12;100977.03;5083782;27;45407;-74
2023/10/09 02:39:52;;;;;;;;;18.00;16.00;;;;;19.44;68.57;100970.00;5086809;27;45576;-74
2023/10/09 02:42:25;;;;;;;;;18.50;16.75;;;;;19.40;68.98;100962.94;5043449;28;45291;-74
2023/10/09 02:44:51;;;;;;;;;19.00;17.25;;;;;19.42;69.35;100964.69;5062482;28;46560;-74
2023/10/09 02:47:24;;;;;;;;;18.00;16.25;;;;;19.44;69.31;100965.56;5067007;28;45650;-74
2023/10/09 02:49:50;;;;;;;;;17.00;15.25;;;;;19.35;69.00;100959.38;5039090;28;45397;-74
2023/10/09 02:52:24;;;;;;;;;18.00;17.75;;;;;19.26;69.38;100963.78;5075029;28;45335;-74
2023/10/09 02:54:59;;;;;;;;;16.75;16.50;;;;;19.28;69.07;100964.69;5059767;28;45982;-74
2023/10/09 02:57:36;;;;;;;;;15.50;15.25;;;;;19.26;69.68;100961.16;5056896;28;45578;-74
2023/10/09 03:00:09;;;;;;;;;15.75;15.75;;;;;19.32;69.65;100964.66;5067397;28;45559;-74
2023/10/09 03:02:39;;;;;;;;;16.50;14.75;;;;;19.31;69.68;100957.63;5061190;28;45612;-74
2023/10/09 03:05:06;;;;;;;;;15.00;14.25;;;;;19.35;68.76;100959.38;5059791;28;46031;-74
2023/10/09 03:07:34;;;;;;;;;18.50;16.25;;;;;19.32;68.35;100954.06;5070475;28;45493;-76
2023/10/09 03:09:59;;;;;;;;;18.00;16.75;;;;;19.35;69.00;100969.97;5075145;28;45715;-74
2023/10/09 03:12:27;;;;;;;;;17.00;15.00;;;;;19.31;68.80;100963.78;5076135;27;45360;-75
2023/10/09 03:14:58;;;;;;;;;16.75;16.25;;;;;19.38;68.76;100956.75;5056978;28;45561;-77
2023/10/09 03:17:24;;;;;;;;;17.00;16.25;;;;;19.33;68.38;100950.56;5066161;28;45665;-74
2023/10/09 03:19:50;;;;;;;;;15.50;14.00;;;;;19.33;68.76;100959.38;5063099;28;45521;-77
2023/10/09 03:22:15;;;;;;;;;20.25;17.25;;;;;19.33;68.53;100964.66;5073890;28;45393;-74
2023/10/09 03:24:44;;;;;;;;;18.25;16.75;;;;;19.28;67.94;100958.50;5054799;28;45461;-74
2023/10/09 03:27:11;;;;;;;;;17.00;16.00;;;;;19.32;67.86;100972.59;5055506;28;45307;-74
2023/10/09 03:29:37;;;;;;;;;16.75;16.00;;;;;19.28;67.45;100963.81;5076557;28;45383;-76
2023/10/09 03:32:03;;;;;;;;;16.75;15.00;;;;;19.24;68.08;100965.56;5048569;28;45386;-76
2023/10/09 03:34:30;;;;;;;;;19.25;17.50;;;;;19.21;68.49;100965.53;5069371;28;45436;-75
2023/10/09 03:37:03;;;;;;;;;18.00;15.00;;;;;19.22;68.51;100975.28;5056251;28;45382;-76
2023/10/09 03:39:41;;;;;;;;;16.75;16.75;;;;;19.24;69.37;100968.22;5057246;28;45585;-77
2023/10/09 03:42:11;;;;;;;;;17.00;16.00;;;;;19.18;69.25;100957.59;5057764;28;45533;-76
2023/10/09 03:44:48;;;;;;;;;16.25;15.75;;;;;19.23;68.65;100960.25;5055263;28;45851;-74
2023/10/09 03:47:16;;;;;;;;;15.75;15.25;;;;;19.26;68.53;100977.03;5056942;28;45445;-76
2023/10/09 03:49:43;;;;;;;;;16.00;15.00;;;;;19.21;69.13;100962.88;5074238;28;45498;-77
2023/10/09 03:52:09;;;;;;;;;17.00;16.25;;;;;19.23;68.37;100966.41;5075617;28;45504;-77
2023/10/09 03:54:35;;;;;;;;;18.00;17.75;;;;;19.13;68.08;100962.00;5071983;28;45997;-77
2023/10/09 03:57:01;;;;;;;;;16.50;15.50;;;;;19.13;68.57;100975.25;5075313;28;45315;-74
2023/10/09 03:59:31;;;;;;;;;15.25;15.00;;;;;19.13;68.95;100975.25;5066020;28;46317;-77
2023/10/09 04:01:58;;;;;;;;;20.00;17.00;;;;;19.05;69.27;100961.13;5075587;28;45564;-75
2023/10/09 04:04:24;;;;;;;;;16.00;16.00;;;;;19.14;69.46;100976.13;5070837;27;46101;-74
2023/10/09 04:06:51;;;;;;;;;18.00;16.00;;;;;19.15;69.57;100977.91;5056907;28;45545;-75
2023/10/09 04:11:46;;;;;;;;;18.00;17.50;;;;;19.16;69.53;100980.56;5063041;27;45465;-74
2023/10/09 04:14:24;;;;;;;;;19.25;18.50;;;;;19.13;69.30;100975.25;5065134;28;45486;-77
2023/10/09 04:16:56;;;;;;;;;17.00;15.50;;;;;19.15;69.43;100976.13;5037735;28;45379;-73
2023/10/09 04:19:24;;;;;;;;;17.75;16.00;;;;;19.17;69.68;100977.00;5056173;28;45328;-73
2023/10/09 04:21:50;;;;;;;;;18.25;17.25;;;;;19.07;70.13;100954.94;5063985;28;45521;-76
2023/10/09 04:26:46;;;;;;;;;19.50;18.00;;;;;19.23;69.49;100974.38;5056410;28;45581;-77
2023/10/09 04:30:00;;;;;;;;;19.25;16.50;;;;;19.24;69.32;100983.22;5065348;28;45403;-75
2023/10/09 04:32:15;;;;;;;;;15.25;15.00;;;;;19.20;69.53;100977.03;5058807;28;45521;-77
2023/10/09 04:34:56;;;;;;;;;16.00;16.00;;;;;19.17;69.37;100982.31;5069894;28;46599;-77
2023/10/09 04:37:37;;;;;;;;;16.25;16.25;;;;;19.11;69.34;100971.72;5062252;28;45345;-74
2023/10/09 04:40:12;;;;;;;;;15.00;14.00;;;;;19.16;69.31;100977.00;5068313;28;45612;-77
2023/10/09 04:42:38;;;;;;;;;24.75;24.00;;;;;19.18;69.23;100986.75;5058029;28;45666;-77
2023/10/09 04:47:38;;;;;;;;;17.25;15.00;;;;;19.00;69.84;100973.44;5069831;28;45478;-74
2023/10/09 05:00:35;;;;;;;;;18.25;17.00;;;;;19.13;69.12;101001.72;5078147;28;45487;-77
2023/10/09 05:03:26;;;;;;;;;17.00;16.00;;;;;19.14;69.91;101008.81;5078522;27;45521;-74
2023/10/09 05:06:20;;;;;;;;;14.75;13.00;;;;;19.08;69.63;101003.50;5075800;28;46150;-74
2023/10/09 05:08:47;;;;;;;;;19.00;17.75;;;;;19.03;70.21;100999.94;5060926;28;45536;-76
2023/10/09 05:11:34;;;;;;;;;18.25;16.75;;;;;19.10;70.49;101012.34;5077240;27;45553;-76
2023/10/09 05:14:13;;;;;;;;;16.25;15.50;;;;;19.02;70.82;100998.16;5078707;28;45401;-76
2023/10/09 05:16:54;;;;;;;;;17.50;17.00;;;;;18.85;71.02;101006.94;5068442;27;46065;-76
2023/10/09 05:19:36;;;;;;;;;17.00;16.00;;;;;18.72;70.38;101014.81;5073801;28;45412;-73
2023/10/09 05:22:07;;;;;;;;;14.50;13.50;;;;;18.63;71.28;101027.13;5040672;28;45477;-77
2023/10/09 05:24:43;;;;;;;;;14.50;14.25;;;;;18.60;71.43;101021.84;5058382;28;45447;-73
2023/10/09 05:27:19;;;;;;;;;18.50;17.25;;;;;18.55;71.30;101017.38;5039539;28;45450;-75
2023/10/09 05:30:12;;;;;;;;;18.50;16.50;;;;;18.62;71.91;101021.81;5046204;28;45390;-75
2023/10/09 05:32:48;;;;;;;;;17.25;16.00;;;;;18.63;71.89;101023.59;5076856;28;45537;-73
2023/10/09 05:35:20;;;;;;;;;19.00;17.50;;;;;18.67;71.33;101025.38;5040939;28;45336;-74
2023/10/09 05:37:46;;;;;;;;;17.50;16.00;;;;;18.64;70.92;101013.03;5066304;28;46139;-74
2023/10/09 05:48:17;;;;;;;;;17.25;16.75;;;;;18.67;70.48;101020.97;5076558;28;45488;-77
2023/10/09 06:04:49;;;;;;;;;20.25;18.00;;;;;18.59;70.08;101045.63;5060854;28;45749;-75
2023/10/09 06:07:13;;;;;;;;;17.00;15.50;;;;;18.53;70.56;101037.66;5069007;28;45286;-74
2023/10/09 06:09:52;;;;;;;;;17.25;16.75;;;;;18.54;70.62;101036.78;5070782;28;46116;-75
2023/10/09 06:15:03;;;;;;;;;16.50;15.75;;;;;18.63;70.65;101047.41;5077177;28;45526;-74
2023/10/09 06:17:43;;;;;;;;;18.50;17.25;;;;;18.59;70.65;101040.34;5063356;28;45451;-75
2023/10/09 06:20:50;;;;;;;;;19.25;18.00;;;;;18.65;70.13;101045.66;5061945;28;46218;-74
2023/10/09 06:22:57;;;;;;;;;19.00;16.75;;;;;18.66;70.26;101044.75;5074531;28;45340;-75
2023/10/09 06:25:32;;;;;;;;;18.25;17.50;;;;;18.71;70.76;101050.09;5066345;28;45441;-75
2023/10/09 06:27:58;;;;;;;;;19.25;19.00;;;;;17.96;70.26;100923.63;5067352;28;45483;-75
2023/10/09 06:30:25;;;;;;;;;25.75;24.50;;;;;18.73;70.68;101057.16;5076864;28;45621;-74
2023/10/09 06:32:57;;;;;;;;;19.50;19.00;;;;;18.65;69.69;101043.88;5055786;28;45499;-75
2023/10/09 06:35:33;;;;;;;;;21.00;18.00;;;;;18.75;70.45;101052.75;5066017;28;45411;-74
2023/10/09 06:43:36;;;;;;;;;19.00;18.50;;;;;18.97;70.21;101063.47;5076813;28;45480;-74
2023/10/09 06:48:40;;;;;;;;;20.00;18.25;;;;;19.11;69.54;101067.03;5077274;28;45517;-75
2023/10/09 06:59:20;;;;;;;;;22.75;20.25;;;;;19.33;68.34;101067.97;5035176;28;45444;-77
2023/10/09 07:01:51;;;;;;;;;21.75;20.75;;;;;19.35;68.53;101071.53;5071002;28;46263;-77
2023/10/09 07:04:45;;;;;;;;;20.00;18.25;;;;;19.44;68.22;101057.44;5048080;28;45315;-78
2023/10/09 07:07:12;;;;;;;;;18.00;18.00;;;;;19.59;67.80;101070.69;5056655;28;45626;-77
2023/10/09 07:12:27;;;;;;;;;22.25;19.75;;;;;19.75;67.93;101076.91;5086566;27;45389;-76
2023/10/09 07:20:15;;;;;;;;;28.25;23.50;;;;;19.96;67.46;101076.03;5080890;27;45425;-76
2023/10/09 07:22:56;;;;;;;;;26.25;23.50;;;;;20.01;67.28;101066.28;5066358;27;46340;-74
2023/10/09 07:25:41;;;;;;;;;22.25;17.50;;;;;20.07;67.01;101076.03;5079053;27;45442;-74
2023/10/09 07:28:18;;;;;;;;;16.50;16.50;;;;;20.09;67.92;101076.91;5065785;27;45724;-73
2023/10/09 07:30:46;;;;;;;;;21.50;19.50;;;;;20.13;67.81;101057.44;5082466;27;45495;-74
2023/10/09 07:38:19;;;;;;;;;22.50;20.75;;;;;21.07;66.70;101073.16;5084247;27;45301;-75
2023/10/09 07:43:39;;;;;;;;;18.33;17.67;;;;;25.19;55.54;101067.72;5079187;27;45802;-74
2023/10/09 07:48:53;;;;;;;;;17.00;14.67;;;;;28.00;49.54;101058.16;5080932;27;45394;-76
2023/10/09 07:51:23;;;;;;;;;16.00;14.00;;;;;29.10;47.10;101072.06;5054367;28;45964;-75
2023/10/09 07:53:57;;;;;;;;;8.00;8.00;;;;;30.04;44.13;101072.78;5063526;28;45272;-75
2023/10/09 07:56:30;;;;;;;;;17.00;16.67;;;;;30.77;42.95;101075.91;5076182;28;45562;-76
2023/10/09 07:59:00;;;;;;;;;15.00;14.00;;;;;31.42;41.54;101081.84;5057793;28;45375;-75
2023/10/09 08:01:35;;;;;;;;;18.00;14.00;;;;;31.84;41.17;101068.06;5069745;28;45379;-76
2023/10/09 08:04:05;;;;;;;;;13.33;13.33;;;;;32.62;39.63;101071.25;5045812;28;46285;-76
2023/10/09 08:06:42;;;;;;;;;13.33;13.00;;;;;32.68;38.87;101081.72;5045724;28;45505;-76
2023/10/09 08:19:54;;;;;;;;;17.67;17.33;;;;;34.07;36.70;101082.03;5063156;28;45528;-76
2023/10/09 08:24:58;;;;;;;;;19.00;16.67;;;;;34.34;36.70;101086.75;5061375;28;45331;-76
2023/10/09 08:27:37;;;;;;;;;19.00;17.00;;;;;34.26;36.45;101092.66;5063911;28;45296;-76
2023/10/09 08:33:00;;;;;;;;;22.33;21.33;;;;;34.86;36.21;101094.41;5079015;27;45396;-77
2023/10/09 08:35:30;;;;;;;;;28.67;26.67;;;;;35.45;37.00;101106.00;5062904;28;45477;-76
2023/10/09 08:38:07;;;;;;;;;22.67;18.67;;;;;35.76;34.76;101094.94;5063095;28;45493;-76
2023/10/09 08:40:38;;;;;;;;;32.33;27.67;;;;;36.02;34.59;101106.75;5078933;28;45492;-76
2023/10/09 08:43:24;;;;;;;;;28.33;24.00;;;;;36.45;33.35;101109.28;5079313;27;45492;-77
2023/10/09 08:46:00;;;;;;;;;33.25;28.50;;;;;36.71;33.47;101115.63;5075116;28;45486;-77
2023/10/09 08:48:27;;;;;;;;;30.67;27.67;;;;;36.88;33.63;101111.66;5044288;28;45496;-77
2023/10/09 08:50:56;;;;;;;;;20.67;19.67;;;;;37.22;32.76;101114.69;5065121;28;45358;-77
2023/10/09 08:53:24;;;;;;;;;13.67;12.33;;;;;37.15;32.53;101107.97;5068249;28;47229;-76
2023/10/09 08:55:51;;;;;;;;;27.00;24.00;;;;;37.09;33.09;101117.44;5073519;28;45425;-76
2023/10/09 08:58:20;;;;;;;;;20.00;15.33;;;;;37.27;32.04;101117.97;5058895;28;45347;-78
2023/10/09 09:00:48;;;;;;;;;15.33;13.00;;;;;36.97;32.36;101111.00;5041978;28;45612;-77
2023/10/09 09:03:18;;;;;;;;;12.67;12.00;;;;;36.84;32.25;101110.16;5066467;28;45616;-77
2023/10/09 09:05:52;;;;;;;;;19.00;18.00;;;;;36.58;32.90;101121.00;5058166;28;46251;-76
2023/10/09 09:08:25;;;;;;;;;17.00;16.00;;;;;36.49;33.63;101113.53;5040381;28;45405;-77
2023/10/09 09:11:12;;;;;;;;;13.67;13.00;;;;;36.61;33.92;101120.81;5046206;28;45430;-78
2023/10/09 09:13:48;;;;;;;;;14.00;14.00;;;;;36.74;33.12;101101.78;5064521;28;45518;-76
2023/10/09 09:16:29;;;;;;;;;11.67;11.33;;;;;37.11;33.79;101112.72;5078154;27;46098;-77
2023/10/09 09:19:00;;;;;;;;;13.67;12.67;;;;;37.10;32.47;101121.00;5076270;27;45410;-78
2023/10/09 09:21:28;;;;;;;;;16.00;15.00;;;;;37.25;33.71;101114.47;5058469;28;45311;-77
2023/10/09 09:23:56;;;;;;;;;10.00;9.67;;;;;37.42;33.14;101119.56;5044323;28;46084;-77
2023/10/09 09:26:46;;;;;;;;;16.33;14.33;;;;;37.32;33.02;101118.47;5073754;27;45539;-77
2023/10/09 09:29:13;;;;;;;;;16.67;16.00;;;;;37.15;32.59;101113.41;5078226;28;45252;-76
2023/10/09 09:31:52;;;;;;;;;17.00;16.33;;;;;36.99;33.14;101113.63;5050365;28;45531;-76
2023/10/09 09:34:18;;;;;;;;;15.50;15.00;;;;;37.14;32.75;101114.38;5052987;28;45553;-76
2023/10/09 09:36:54;;;;;;;;;18.00;16.33;;;;;37.18;33.37;101107.72;5058422;28;46443;-76
2023/10/09 09:39:29;;;;;;;;;18.33;17.00;;;;;37.30;33.42;101115.00;5042728;28;45262;-77
2023/10/09 09:41:57;;;;;;;;;13.67;13.67;;;;;37.31;33.49;101115.88;5040674;28;45467;-77
2023/10/09 09:44:26;;;;;;;;;16.67;16.00;;;;;37.45;33.56;101109.41;5068920;28;45485;-77
2023/10/09 09:46:55;;;;;;;;;13.67;13.33;;;;;37.63;33.49;101107.19;5044238;28;48209;-77
2023/10/09 09:49:21;;;;;;;;;13.67;12.33;;;;;37.91;33.41;101105.94;5073894;28;45500;-77
2023/10/09 09:51:48;;;;;;;;;14.67;13.67;;;;;37.84;32.31;101108.25;5044207;28;45392;-77
2023/10/09 09:54:18;;;;;;;;;14.00;13.00;;;;;37.79;33.18;101105.91;5040217;28;45594;-76
2023/10/09 09:56:50;;;;;;;;;17.67;15.33;;;;;37.88;31.95;101106.19;5073225;28;45486;-76
2023/10/09 09:59:27;;;;;;;;;15.33;15.00;;;;;37.39;33.18;101117.03;5059229;28;45542;-76
2023/10/09 10:02:06;;;;;;;;;14.33;13.33;;;;;37.31;34.41;101099.53;5058784;28;45462;-76
2023/10/09 10:04:37;;;;;;;;;14.33;14.33;;;;;37.46;34.03;101105.69;5071635;28;46386;-76
2023/10/09 10:07:09;;;;;;;;;14.00;13.67;;;;;37.67;32.52;101109.56;5068462;28;46585;-77
2023/10/09 10:09:44;;;;;;;;;17.33;14.67;;;;;37.58;33.14;101112.94;5058096;28;45179;-76
2023/10/09 10:12:11;;;;;;;;;14.00;13.00;;;;;37.45;33.18;101107.53;5063141;28;45374;-76
2023/10/09 10:14:58;;;;;;;;;17.33;16.00;;;;;37.18;32.97;101103.13;5068897;28;45468;-77
2023/10/09 10:17:27;;;;;;;;;14.33;14.00;;;;;37.16;33.61;101096.06;5061310;28;46095;-77
2023/10/09 10:22:47;;;;;;;;;20.00;17.00;;;;;36.69;33.97;101097.63;5062186;28;45265;-77
2023/10/09 10:25:35;;;;;;;;;17.33;15.33;;;;;36.36;34.73;101093.59;5073871;28;45205;-76
2023/10/09 10:28:38;;;;;;;;;16.33;16.33;;;;;36.54;35.10;101096.84;5070053;28;45581;-77
2023/10/09 10:31:09;;;;;;;;;19.00;18.00;;;;;36.52;34.77;101091.50;5072805;28;45240;-77
2023/10/09 10:33:59;;;;;;;;;18.33;16.67;;;;;35.91;35.70;101090.31;5066460;28;45495;-77
2023/10/09 10:36:29;;;;;;;;;23.67;23.67;;;;;35.78;36.48;101087.56;5058436;28;45465;-77
2023/10/09 10:39:21;;;;;;;;;13.33;12.67;;;;;35.83;36.28;101086.28;5072352;28;46718;-77
2023/10/09 10:41:54;;;;;;;;;17.33;17.00;;;;;35.88;36.34;101079.66;5069606;28;45237;-77
2023/10/09 10:44:36;;;;;;;;;20.33;20.33;;;;;35.76;36.16;101071.34;5070919;28;45401;-77
2023/10/09 10:47:21;;;;;;;;;21.67;19.00;;;;;35.70;35.91;101081.78;5060555;28;45706;-77
2023/10/09 10:49:50;;;;;;;;;14.33;12.67;;;;;35.61;35.34;101085.94;5057091;28;46329;-77
2023/10/09 10:58:24;;;;;;;;;15.00;13.67;;;;;34.25;36.63;101066.50;5128304;27;45627;-80
2023/10/09 11:06:37;;;;;;;;;14.33;13.00;;;;;34.09;37.06;101074.69;5078652;27;45311;-77
2023/10/09 11:09:21;;;;;;;;;17.67;14.33;;;;;33.88;37.02;101056.03;5111333;27;46374;-82
2023/10/09 11:11:49;;;;;;;;;15.67;14.67;;;;;34.06;36.10;101066.72;5113827;27;45337;-81
2023/10/09 11:14:15;;;;;;;;;14.00;13.33;;;;;33.99;36.41;101058.09;5114050;27;45503;-81
2023/10/09 11:16:41;;;;;;;;;14.33;14.00;;;;;34.03;36.39;101048.81;5114175;27;45333;-80
2023/10/09 11:21:58;;;;;;;;;13.00;13.00;;;;;34.12;36.37;101060.91;5113694;27;45499;-80
2023/10/09 11:24:34;;;;;;;;;29.67;29.00;;;;;34.01;36.67;101055.28;5105330;27;45483;-81
2023/10/09 11:27:05;;;;;;;;;22.25;20.75;;;;;33.90;36.28;101052.34;5113452;27;45642;-80
2023/10/09 11:32:19;;;;;;;;;14.33;14.33;;;;;33.77;36.09;101031.41;5113207;27;45641;-81
2023/10/09 11:34:53;;;;;;;;;15.67;14.00;;;;;33.83;36.19;101043.72;5111844;27;45437;-80
2023/10/09 11:39:55;;;;;;;;;15.00;14.67;;;;;33.61;36.93;101044.09;5112710;27;45380;-78
2023/10/09 11:42:38;;;;;;;;;16.00;16.00;;;;;33.60;37.55;101040.50;5113098;27;45541;-80
2023/10/09 11:45:20;;;;;;;;;17.00;16.00;;;;;33.52;38.25;101033.78;5113090;27;45636;-80
2023/10/09 11:47:59;;;;;;;;;13.00;13.00;;;;;33.53;38.94;101032.84;5112741;27;45426;-75
2023/10/09 11:50:52;;;;;;;;;20.00;17.33;;;;;33.41;39.69;101029.88;5112190;27;46806;-75
2023/10/09 11:55:48;;;;;;;;;16.33;14.67;;;;;33.02;40.71;101028.44;5113075;27;45343;-75
2023/10/09 11:58:23;;;;;;;;;33.25;29.50;;;;;33.04;41.16;101017.53;5112885;27;45476;-75
2023/10/09 12:01:05;;;;;;;;;20.33;18.33;;;;;32.90;40.90;101000.25;5082333;27;45423;-80
2023/10/09 12:03:32;;;;;;;;;20.00;18.33;;;;;33.05;41.36;101011.19;5113231;27;45384;-79
2023/10/09 12:06:07;;;;;;;;;17.67;16.67;;;;;32.99;40.61;101019.63;5113564;27;45918;-79
2023/10/09 12:08:33;;;;;;;;;18.00;16.00;;;;;32.81;41.27;101013.41;5103991;27;45501;-77
2023/10/09 12:11:02;;;;;;;;;19.00;17.33;;;;;32.80;41.46;101019.81;5098562;27;45461;-79
2023/10/09 12:13:28;;;;;;;;;16.67;15.00;;;;;32.79;41.61;101007.22;5099628;27;45427;-80
2023/10/09 12:15:54;;;;;;;;;21.33;19.33;;;;;32.59;41.78;101017.34;5099225;27;45590;-76
2023/10/09 12:18:21;;;;;;;;;18.67;18.33;;;;;32.37;43.54;101000.47;5098867;27;45633;-78
2023/10/09 12:20:50;;;;;;;;;19.67;17.00;;;;;32.13;43.10;100981.91;5099128;27;46191;-80
2023/10/09 12:23:18;;;;;;;;;17.67;16.00;;;;;32.42;42.40;100999.28;5098727;27;45448;-78
2023/10/09 12:25:44;;;;;;;;;18.00;15.67;;;;;32.17;42.92;100967.31;5099536;27;45413;-75
2023/10/09 12:28:14;;;;;;;;;19.00;18.33;;;;;32.49;42.29;100998.00;5099414;27;45368;-78
2023/10/09 12:30:41;;;;;;;;;17.33;16.00;;;;;32.38;42.38;100978.78;5099312;27;45355;-77
2023/10/09 12:33:08;;;;;;;;;18.33;17.33;;;;;32.54;42.17;100997.75;5099074;27;45400;-76
2023/10/09 12:35:40;;;;;;;;;20.67;19.33;;;;;32.52;41.40;100994.25;5098474;27;45404;-75
2023/10/09 12:38:10;;;;;;;;;17.33;16.33;;;;;32.53;41.20;100996.00;5098585;27;45398;-75
2023/10/09 12:40:38;;;;;;;;;16.67;16.33;;;;;32.41;40.94;100993.94;5068087;27;45426;-75
2023/10/09 12:43:03;;;;;;;;;18.67;16.67;;;;;32.34;41.09;100989.84;5098882;27;45298;-74
2023/10/09 12:45:33;;;;;;;;;18.00;17.33;;;;;32.07;40.99;100988.56;5098758;27;45653;-79
2023/10/09 12:47:59;;;;;;;;;17.67;17.00;;;;;32.05;41.56;100994.97;5098263;27;45470;-74
2023/10/09 12:50:28;;;;;;;;;17.33;16.33;;;;;32.10;40.03;100990.22;5098715;27;46053;-75
2023/10/09 12:52:55;;;;;;;;;18.00;17.00;;;;;32.02;40.49;100984.34;5097603;27;45437;-75
2023/10/09 12:55:21;;;;;;;;;19.33;18.33;;;;;31.67;40.15;100962.69;5097707;27;45417;-76
2023/10/09 12:57:48;;;;;;;;;23.67;20.33;;;;;31.58;40.18;100958.66;5097110;27;45444;-75
2023/10/09 13:00:25;;;;;;;;;22.00;17.00;;;;;31.44;40.67;100935.03;5097691;27;46079;-75
2023/10/09 13:02:51;;;;;;;;;17.00;16.33;;;;;31.79;40.80;100975.56;5097739;27;45417;-76
2023/10/09 13:05:26;;;;;;;;;26.00;22.33;;;;;31.88;40.31;100976.94;5097075;27;45533;-75
2023/10/09 13:07:56;;;;;;;;;18.67;17.00;;;;;31.90;40.62;100981.28;5097952;27;46376;-75
2023/10/09 13:10:24;;;;;;;;;15.33;14.33;;;;;31.98;40.08;100974.63;5097701;27;46270;-75
2023/10/09 13:12:55;;;;;;;;;16.00;14.00;;;;;31.84;40.11;100960.00;5097569;27;45526;-75
2023/10/09 13:15:21;;;;;;;;;20.33;18.67;;;;;31.85;40.30;100971.66;5097164;27;45345;-74
2023/10/09 13:17:47;;;;;;;;;17.00;16.33;;;;;31.82;40.16;100950.25;5097520;27;45236;-74
2023/10/09 13:20:13;;;;;;;;;16.67;16.00;;;;;31.95;39.99;100972.94;5096852;27;46611;-75
2023/10/09 13:22:41;;;;;;;;;17.67;16.67;;;;;31.98;40.11;100972.78;5097977;27;45376;-75
2023/10/09 13:25:16;;;;;;;;;17.33;17.33;;;;;31.82;39.68;100934.03;5081287;27;45455;-77
2023/10/09 13:27:51;;;;;;;;;18.67;18.00;;;;;32.02;39.77;100971.69;5097435;27;45425;-75
2023/10/09 13:30:21;;;;;;;;;17.00;17.00;;;;;31.84;39.38;100964.53;5097416;27;45631;-77
2023/10/09 13:32:50;;;;;;;;;19.00;18.00;;;;;31.96;39.94;100974.69;5097219;27;45566;-75
2023/10/09 13:35:19;;;;;;;;;15.33;15.00;;;;;31.85;40.15;100950.94;5097498;27;45465;-76
2023/10/09 13:37:53;;;;;;;;;15.67;15.67;;;;;31.99;39.74;100963.69;5097359;27;45555;-76
2023/10/09 13:40:26;;;;;;;;;17.67;16.67;;;;;31.76;39.94;100937.06;5095857;27;45803;-79
2023/10/09 13:43:01;;;;;;;;;19.00;18.00;;;;;31.85;39.80;100956.34;5089205;27;45503;-75
2023/10/09 13:45:28;;;;;;;;;20.00;17.33;;;;;31.56;39.58;100911.09;5077611;27;45821;-75
2023/10/09 13:48:04;;;;;;;;;17.67;15.67;;;;;31.68;40.44;100948.25;5077253;27;45625;-76
2023/10/09 13:50:32;;;;;;;;;17.00;16.00;;;;;31.40;39.67;100911.84;5075829;27;46169;-76